Terminal Aerodrome Forecast
Issued by NWS

Home | Current Version | Previous Version | Text Only | Print | Product List | Glossary On
Versions: 1 2 3 4 5 6 7 8 9 10 11 12 13
000
FTUS42 KTBW 281139
TAFLAL
TAF
KLAL 281139Z 2812/2912 VRB03KT P6SM SKC
     FM281500 VRB03KT P6SM FEW035
     FM281700 VRB04KT P6SM SCT050
     FM282100 29006KT P6SM SCT060
     FM290100 VRB03KT P6SM FEW060
     FM290400 VRB03KT P6SM SKC
      TEMPO 2909/2912 5SM BR=

USA.gov is the U.S. government's official web portal to all federal, state and local government web resources and services.